ENEV/EVE METAR and TAF weather

Enter ICAO airport designator
Station Type Date Time Source
ENEV METAR 2021/03/08 14:50 UTC NOAA

ENEV 081450Z 17004KT 110V200 9999 SCT028 M02/M06 Q1012 RMK WIND 1400FT 13008KT


Station Type Date Time Source
ENEV Decoded METAR 2021/03/08 14:50 UTC NOAA

Evenes, Norway (ENEV) 68-31N 016-41E 26M
Mar 08, 2021 - 09:50 AM EST / 2021.03.08 1450 UTC
Wind: from the S (170 degrees) at 5 MPH (4 KT) (direction variable):0
Visibility: greater than 7 mile(s):0
Sky conditions: partly cloudy
Temperature: 28 F (-2 C)
Windchill: 23 F (-5 C):1
Dew Point: 21 F (-6 C)
Relative Humidity: 74%
Pressure (altimeter): 29.88 in. Hg (1012 hPa)
ob: ENEV 081450Z 17004KT 110V200 9999 SCT028 M02/M06 Q1012 RMK WIND 1400FT 13008KT
cycle: 15

Station Type Date Time Source
ENEV TAF 2010/02/05 07:50 UTC NOAA

METAR ENEV 050750Z 14007KT 9999 FEW040 SCT055 M04/M09 Q1019

Example: see airport list